Decoded Metar for LFBO (TOULOUSE BLAGNAC in FRANCE) (IATA:TLS) | Meteo·Mobile Aviation Weather
aviador You're here:

LFBO Decoded Metar

TOULOUSE BLAGNAC in FRANCE
Report Time2019-08-19 05:30:00
UTC Time2019-08-19 05:56:10
Flight Rules vfr VFR
Wind320° at 06 kt
W.Decomp.*RWY 32: 6.0 kt HW 0 kt LCW
Visibility9999 m
Phenomena:N/A
Clouds:Few 010 Hf
Scattered 015 Hf
Broken 030 Hf
Expected CloudBase > 800 ft AGL from Temp-Dew spread
Ceiling3,000 ft
Temp17°C (ISA +3)
Dew Point15°C (88% RH)
AAT16.5°C
QNH1020 hPa
Density Alt846 ft
Elevation502 ft
Report Wrong Elevation
Raw Report
LFBO 190530Z AUTO 32006KT 9999 FEW010 SCT015 BKN030 17/15 Q1020
BECMG BKN014=

Extra information for LFBO:More info

Metar Taf Metar & Taf Last 4 Metars F.Rules Stats Wind Profile Meteogram Temp Stats Airport Information Weather charts Add Link Nearby VenuesMetar ALERT Operation Metar Decoded Social comments